CheckWX is a tool to help pilots better visualize weather data.  It is not intended as a substitute for an official pre-flight weather briefing.

18:03:34 UTC

KLUX METAR
Laurens County Airport
Laurens, South Carolina, USA
Current

9 mins ago

KLUX 171755Z AUTO 05005KT 10SM OVC010 05/02 A3005 RMK AO2
Observed
Feb-17 @ 17:55 UTC
Wind
  • 050° at 5 KTS
Visibility
10 SM
Flight Rules
MVFR
Cloud Levels
  • Overcast at 1,000' AGL
Temperature
C / 41°F
Dewpoint
C / 36°F
Humidity
81%
Altimeter
30.05" Hg
Pressure
1017.62 hPa
Previous

29 mins ago

KLUX 171735Z AUTO 02009KT 10SM OVC010 05/03 A3006 RMK AO2
Observed
Feb-17 @ 17:35 UTC
Wind
  • 020° at 9 KTS
Visibility
10 SM
Flight Rules
MVFR
Cloud Levels
  • Overcast at 1,000' AGL
Temperature
C / 41°F
Dewpoint
C / 37°F
Humidity
87%
Altimeter
30.06" Hg
Pressure
1017.92 hPa
Previous

49 mins ago

KLUX 171715Z AUTO 04007KT 010V080 10SM OVC010 05/03 A3005 RMK AO2
Observed
Feb-17 @ 17:15 UTC
Wind
  • 040° at 7 KTS
Visibility
10 SM
Flight Rules
MVFR
Cloud Levels
  • Overcast at 1,000' AGL
Temperature
C / 41°F
Dewpoint
C / 37°F
Humidity
87%
Altimeter
30.05" Hg
Pressure
1017.62 hPa